createdAt,value
2022-08-03T00:01:49.977Z,15.30
2022-08-03T00:06:53.003Z,15.11
2022-08-03T00:11:55.385Z,14.95
2022-08-03T00:16:58.132Z,14.82
2022-08-03T00:22:00.719Z,14.76
2022-08-03T00:27:03.034Z,14.72
2022-08-03T00:32:07.880Z,14.69
2022-08-03T00:37:14.022Z,14.66
2022-08-03T00:42:17.370Z,14.63
2022-08-03T00:47:20.263Z,14.69
2022-08-03T00:52:24.185Z,14.81
2022-08-03T00:57:29.246Z,14.89
2022-08-03T01:02:32.532Z,14.79
2022-08-03T01:07:43.054Z,14.70
2022-08-03T01:13:07.217Z,14.56
2022-08-03T01:18:48.793Z,14.38
2022-08-03T01:24:16.301Z,14.33
2022-08-03T01:29:34.667Z,14.42
2022-08-03T01:34:44.500Z,14.46
2022-08-03T01:39:49.155Z,14.32
2022-08-03T01:44:52.784Z,14.17
2022-08-03T01:49:58.249Z,14.12
2022-08-03T01:55:04.428Z,14.13
2022-08-03T02:00:09.843Z,14.26
2022-08-03T02:05:15.116Z,14.31
2022-08-03T02:10:34.383Z,14.25
2022-08-03T02:15:41.791Z,14.28
2022-08-03T02:20:44.865Z,14.29
2022-08-03T02:25:55.265Z,14.25
2022-08-03T02:31:01.614Z,14.05
2022-08-03T02:36:04.907Z,13.89
2022-08-03T02:41:13.556Z,13.81
2022-08-03T02:46:20.204Z,13.77
2022-08-03T02:51:24.944Z,13.79
2022-08-03T02:56:28.334Z,13.93
2022-08-03T03:01:32.089Z,14.01
2022-08-03T03:06:35.765Z,13.98
2022-08-03T03:11:40.825Z,14.01
2022-08-03T03:16:45.328Z,14.00
2022-08-03T03:21:55.633Z,13.92
2022-08-03T03:26:58.523Z,13.90
2022-08-03T03:32:04.093Z,13.96
2022-08-03T03:37:11.959Z,13.95
2022-08-03T03:42:14.764Z,14.02
2022-08-03T03:47:17.651Z,14.07
2022-08-03T03:52:35.233Z,14.06
2022-08-03T03:57:37.617Z,14.17
2022-08-03T04:02:40.026Z,14.39
2022-08-03T04:08:33.873Z,14.53
2022-08-03T04:13:46.420Z,14.78
2022-08-03T04:18:54.042Z,14.95
2022-08-03T04:24:01.562Z,15.06
2022-08-03T04:29:05.220Z,15.26
2022-08-03T04:34:07.834Z,15.44
2022-08-03T04:39:32.870Z,15.76
2022-08-03T04:44:38.524Z,16.15
2022-08-03T04:49:41.206Z,16.34
2022-08-03T04:54:50.968Z,16.64
2022-08-03T05:00:02.451Z,16.82
2022-08-03T05:05:05.990Z,17.09
2022-08-03T05:10:14.735Z,17.25
2022-08-03T05:15:18.537Z,17.34
2022-08-03T05:20:21.349Z,17.58
2022-08-03T05:25:27.290Z,18.58
2022-08-03T05:30:34.180Z,21.18
2022-08-03T05:36:00.983Z,23.22
2022-08-03T05:41:22.906Z,24.14
2022-08-03T05:46:26.362Z,26.43
2022-08-03T05:51:28.637Z,28.40
2022-08-03T05:56:30.857Z,29.54
2022-08-03T06:01:33.580Z,29.16
2022-08-03T06:06:36.158Z,28.07
2022-08-03T06:11:42.191Z,27.01
2022-08-03T06:16:45.646Z,26.15
2022-08-03T06:21:48.880Z,25.94
2022-08-03T06:26:55.324Z,25.97
2022-08-03T06:31:58.601Z,26.00
2022-08-03T06:37:02.337Z,26.00
2022-08-03T06:42:04.909Z,26.18
2022-08-03T06:47:06.924Z,26.13
2022-08-03T06:52:10.114Z,26.03
2022-08-03T06:57:13.135Z,26.24
2022-08-03T07:02:19.369Z,26.81
2022-08-03T07:07:23.274Z,27.28
2022-08-03T07:12:29.957Z,28.03
2022-08-03T07:17:34.917Z,29.11
2022-08-03T07:22:38.029Z,29.18
2022-08-03T07:27:51.618Z,28.95
2022-08-03T07:32:55.487Z,28.89
2022-08-03T07:37:58.809Z,28.41
2022-08-03T07:43:03.594Z,28.68
2022-08-03T07:48:11.941Z,29.24
2022-08-03T07:53:16.750Z,29.81
2022-08-03T07:58:24.186Z,30.31
2022-08-03T08:03:27.679Z,30.57
2022-08-03T08:08:51.555Z,30.78
2022-08-03T08:13:54.464Z,31.15
2022-08-03T08:18:57.653Z,31.05
2022-08-03T08:24:01.111Z,30.86
2022-08-03T08:29:06.456Z,30.91
2022-08-03T08:34:10.435Z,31.06
2022-08-03T08:39:13.381Z,30.96
2022-08-03T08:44:21.943Z,30.73
2022-08-03T08:49:28.564Z,30.38
2022-08-03T08:54:32.954Z,30.34
2022-08-03T08:59:48.262Z,30.43
2022-08-03T09:04:53.169Z,30.13
2022-08-03T09:10:12.343Z,30.32
2022-08-03T09:15:29.760Z,30.50
2022-08-03T09:20:36.723Z,30.69
2022-08-03T09:25:42.178Z,30.43
2022-08-03T09:30:59.464Z,29.69
2022-08-03T09:36:01.915Z,30.02
2022-08-03T09:41:17.743Z,30.30
2022-08-03T09:46:23.074Z,30.31
2022-08-03T09:52:28.939Z,30.47
2022-08-03T09:56:49.369Z,30.41
2022-08-03T10:01:53.192Z,30.52
2022-08-03T10:07:23.260Z,30.08
2022-08-03T10:12:26.939Z,29.93
2022-08-03T10:17:36.164Z,30.17
2022-08-03T10:22:41.893Z,30.68
2022-08-03T10:27:48.065Z,30.86
2022-08-03T10:33:02.818Z,30.95
2022-08-03T10:38:10.357Z,30.88
2022-08-03T10:43:22.552Z,30.85
2022-08-03T10:48:25.862Z,30.80
2022-08-03T10:53:36.109Z,31.03
2022-08-03T10:58:56.913Z,31.27
2022-08-03T11:04:03.837Z,31.41
2022-08-03T11:09:11.293Z,31.16
2022-08-03T11:14:20.725Z,31.16
2022-08-03T11:19:28.123Z,31.61
2022-08-03T11:24:37.555Z,31.15
2022-08-03T11:29:53.801Z,30.33
2022-08-03T11:35:21.557Z,30.79
2022-08-03T11:40:46.729Z,31.21
2022-08-03T11:46:14.171Z,31.25
2022-08-03T11:51:32.390Z,31.35
2022-08-03T11:56:48.268Z,31.00
2022-08-03T12:01:50.865Z,30.96
2022-08-03T12:07:03.307Z,30.93
2022-08-03T12:12:05.884Z,30.86
2022-08-03T12:17:10.404Z,30.98
2022-08-03T12:22:13.241Z,30.90
2022-08-03T12:27:26.160Z,30.80
2022-08-03T12:32:32.789Z,30.70
2022-08-03T12:37:35.507Z,30.70
2022-08-03T12:42:39.526Z,30.42
2022-08-03T12:47:58.007Z,30.48
2022-08-03T12:53:02.089Z,30.34
2022-08-03T12:58:07.747Z,30.41
2022-08-03T13:08:32.236Z,30.95
2022-08-03T13:13:40.526Z,30.62
2022-08-03T13:18:43.189Z,30.12
2022-08-03T13:23:46.822Z,30.09
2022-08-03T13:28:49.289Z,30.26
2022-08-03T13:33:51.746Z,30.47
2022-08-03T13:38:54.761Z,30.63
2022-08-03T13:44:26.190Z,30.53
2022-08-03T13:49:21.308Z,30.34
2022-08-03T13:54:25.465Z,30.05
2022-08-03T13:59:28.009Z,29.81
2022-08-03T14:04:30.406Z,29.82
2022-08-03T14:09:32.469Z,29.77
2022-08-03T14:14:34.732Z,29.91
2022-08-03T14:19:52.726Z,30.10
2022-08-03T14:24:58.873Z,30.16
2022-08-03T14:30:07.563Z,30.18
2022-08-03T14:35:10.458Z,30.08
2022-08-03T14:40:13.437Z,30.08
2022-08-03T14:45:19.958Z,30.19
2022-08-03T14:50:40.052Z,30.32
2022-08-03T14:55:50.264Z,30.32
2022-08-03T15:00:54.915Z,30.22
2022-08-03T15:05:57.193Z,30.13
2022-08-03T15:10:59.979Z,30.02
2022-08-03T15:16:05.275Z,29.81
2022-08-03T15:21:20.776Z,29.72
2022-08-03T15:26:41.601Z,29.46
2022-08-03T15:31:44.898Z,29.41
2022-08-03T15:36:47.803Z,29.49
2022-08-03T15:41:50.821Z,29.52
2022-08-03T15:46:53.525Z,29.44
2022-08-03T15:51:55.815Z,29.31
2022-08-03T15:56:58.617Z,29.27
2022-08-03T16:02:01.256Z,29.28
2022-08-03T16:07:04.522Z,29.20
2022-08-03T16:12:16.217Z,29.11
2022-08-03T16:17:20.341Z,29.06
2022-08-03T16:22:26.057Z,28.98
2022-08-03T16:27:56.754Z,28.90
2022-08-03T16:32:54.705Z,28.83
2022-08-03T16:38:02.824Z,28.73
2022-08-03T16:43:18.581Z,28.61
2022-08-03T16:48:22.756Z,28.41
2022-08-03T16:53:51.702Z,28.22
2022-08-03T16:58:53.739Z,28.03
2022-08-03T17:04:04.579Z,27.83
2022-08-03T17:09:12.254Z,27.61
2022-08-03T17:14:23.707Z,27.37
2022-08-03T17:19:32.569Z,27.17
2022-08-03T17:24:42.362Z,26.95
2022-08-03T17:29:48.522Z,26.72
2022-08-03T17:34:51.616Z,26.47
2022-08-03T17:39:59.402Z,26.20
2022-08-03T17:45:03.854Z,25.94
2022-08-03T17:50:24.780Z,25.68
2022-08-03T17:55:57.429Z,25.42
2022-08-03T18:02:02.054Z,25.14
2022-08-03T18:06:56.167Z,24.84
2022-08-03T18:12:05.447Z,24.55
2022-08-03T18:17:16.384Z,24.28
2022-08-03T18:22:27.306Z,23.98
2022-08-03T18:27:45.517Z,23.71
2022-08-03T18:33:00.829Z,23.45
2022-08-03T18:38:20.244Z,23.20
2022-08-03T18:43:46.252Z,23.01
2022-08-03T18:49:11.410Z,22.76
2022-08-03T18:54:55.712Z,22.55
2022-08-03T18:59:58.930Z,22.32
2022-08-03T19:05:08.595Z,22.10
2022-08-03T19:10:15.887Z,21.90
2022-08-03T19:15:36.698Z,21.63
2022-08-03T19:20:46.733Z,21.38
2022-08-03T19:25:51.171Z,21.22
2022-08-03T19:31:00.211Z,20.98
2022-08-03T19:36:10.493Z,20.74
2022-08-03T19:41:16.609Z,20.53
2022-08-03T19:46:21.127Z,20.49
2022-08-03T19:52:01.057Z,20.28
2022-08-03T19:56:55.158Z,19.95
2022-08-03T20:01:58.108Z,19.90
2022-08-03T20:07:02.464Z,19.89
2022-08-03T20:12:08.883Z,19.79
2022-08-03T20:17:15.482Z,19.62
2022-08-03T20:22:36.487Z,19.53
2022-08-03T20:28:08.047Z,19.45
2022-08-03T20:33:10.969Z,19.45
2022-08-03T20:38:14.156Z,19.44
2022-08-03T20:43:25.522Z,19.42
2022-08-03T20:48:32.319Z,19.41
2022-08-03T20:53:57.304Z,19.25
2022-08-03T20:59:06.172Z,19.09
2022-08-03T21:04:11.144Z,18.95
2022-08-03T21:09:20.446Z,18.74
2022-08-03T21:14:41.433Z,18.76
2022-08-03T21:19:52.107Z,18.72
2022-08-03T21:24:56.976Z,18.71
2022-08-03T21:30:04.515Z,18.66
2022-08-03T21:35:10.878Z,18.64
2022-08-03T21:40:16.001Z,18.62
2022-08-03T21:45:19.022Z,18.54
2022-08-03T21:50:22.096Z,18.43
2022-08-03T21:55:27.108Z,18.24
2022-08-03T22:00:29.942Z,18.22
2022-08-03T22:05:43.482Z,18.15
2022-08-03T22:10:49.008Z,18.01
2022-08-03T22:15:51.959Z,17.95
2022-08-03T22:20:56.122Z,17.98
2022-08-03T22:26:03.512Z,17.97
2022-08-03T22:31:57.763Z,17.79
2022-08-03T22:36:29.611Z,17.67
2022-08-03T22:41:31.998Z,17.62
2022-08-03T22:46:37.499Z,17.66
2022-08-03T22:51:41.026Z,17.73
2022-08-03T22:56:50.136Z,17.65
2022-08-03T23:02:00.538Z,17.54
2022-08-03T23:07:11.205Z,17.52
2022-08-03T23:12:20.306Z,17.51
2022-08-03T23:17:23.996Z,17.58
2022-08-03T23:22:30.289Z,17.61
2022-08-03T23:27:39.591Z,17.44
2022-08-03T23:32:44.240Z,17.25
2022-08-03T23:38:22.189Z,17.15
2022-08-03T23:43:14.064Z,17.07
2022-08-03T23:48:37.547Z,16.98
2022-08-03T23:54:01.897Z,16.88
2022-08-03T23:59:26.918Z,16.84
